Armstrong, Missouri
Current Conditions -  °F | °C
As of 12:15 PM on Friday 28 Nov 2014 (Local Time) from KVER Reporting Station
NA  
Wind Chill: 13°   Ceiling: NA
Heat Index: 13°   Visibility: 10mi
Dew Point: -1°   Wind: 14mph
Humidity: 37%   Direction: 220°SW
Pressure: 29.93"   Gusts: 21mph
Location:  39.27°N, 92.7°W
Report Text: KVER 281815Z AUTO 22012G18KT 10SM 13/M01 A2993 RMK AO2 T01321011
Loading
Personal Weather Stations






























Interactive Weather Map New forecast layout! Learn more

10-Day Weather Forecast

Advertisements
Track Severe Weather on mobile